Terminal Aerodrome Forecast
Issued by NWS

Current Version | Previous Version | Text Only | Print | Product List | Glossary Off
Versions: 1 2 3 4 5 6 7 8 9 10 11 12 13 14 15 16 17

000
FTUS41 KILN 222058 AAA
TAFLUK
TAF AMD
KLUK 222058Z 2221/2318 04012KT P6SM VCSH OVC080
     FM222300 04008KT P6SM BKN090
     FM231500 04010KT P6SM SCT250=

USA.gov is the U.S. government's official web portal to all federal, state and local government web resources and services.